sensor_id;sensor_type;location;lat;lon;timestamp;pressure;altitude;pressure_sealevel;temperature;humidity
6435;BME280;3250;42.694;23.278;2023-05-11T00:01:26;95003.91;;;10.30;80.00
6435;BME280;3250;42.694;23.278;2023-05-11T00:03:51;94998.22;;;10.40;79.91
6435;BME280;3250;42.694;23.278;2023-05-11T00:06:16;95007.72;;;10.47;79.24
6435;BME280;3250;42.694;23.278;2023-05-11T00:08:42;94977.00;;;10.21;79.23
6435;BME280;3250;42.694;23.278;2023-05-11T00:11:08;94992.38;;;10.31;79.32
6435;BME280;3250;42.694;23.278;2023-05-11T00:13:33;95018.69;;;10.38;80.08
6435;BME280;3250;42.694;23.278;2023-05-11T00:15:58;94958.19;;;10.11;79.42
6435;BME280;3250;42.694;23.278;2023-05-11T00:18:24;95001.28;;;10.37;79.27
6435;BME280;3250;42.694;23.278;2023-05-11T00:20:49;94994.00;;;10.32;79.58
6435;BME280;3250;42.694;23.278;2023-05-11T00:23:15;95019.63;;;10.56;79.22
6435;BME280;3250;42.694;23.278;2023-05-11T00:25:40;94999.81;;;10.47;78.72
6435;BME280;3250;42.694;23.278;2023-05-11T00:28:06;95022.47;;;10.62;78.78
6435;BME280;3250;42.694;23.278;2023-05-11T00:30:31;95000.28;;;10.38;78.95
6435;BME280;3250;42.694;23.278;2023-05-11T00:32:57;94984.50;;;10.18;79.34
6435;BME280;3250;42.694;23.278;2023-05-11T00:35:23;94974.97;;;10.10;79.57
6435;BME280;3250;42.694;23.278;2023-05-11T00:37:48;95016.47;;;10.35;79.37
6435;BME280;3250;42.694;23.278;2023-05-11T00:40:13;95021.34;;;10.18;80.13
6435;BME280;3250;42.694;23.278;2023-05-11T00:42:39;95009.97;;;10.04;79.87
6435;BME280;3250;42.694;23.278;2023-05-11T00:45:05;95025.75;;;10.04;80.85
6435;BME280;3250;42.694;23.278;2023-05-11T00:47:31;95029.59;;;10.08;80.71
6435;BME280;3250;42.694;23.278;2023-05-11T00:49:57;95010.38;;;10.08;80.35
6435;BME280;3250;42.694;23.278;2023-05-11T00:52:22;95007.34;;;9.98;80.25
6435;BME280;3250;42.694;23.278;2023-05-11T00:54:48;95019.09;;;10.08;80.22
6435;BME280;3250;42.694;23.278;2023-05-11T00:57:14;95011.41;;;10.00;80.00
6435;BME280;3250;42.694;23.278;2023-05-11T00:59:40;95011.78;;;10.04;80.13
6435;BME280;3250;42.694;23.278;2023-05-11T01:02:06;95018.50;;;10.19;79.48
6435;BME280;3250;42.694;23.278;2023-05-11T01:04:31;95003.69;;;10.05;79.32
6435;BME280;3250;42.694;23.278;2023-05-11T01:07:19;95013.25;;;10.19;79.31
6435;BME280;3250;42.694;23.278;2023-05-11T01:10:02;95031.84;;;10.25;79.53
6435;BME280;3250;42.694;23.278;2023-05-11T01:12:34;95005.13;;;10.01;80.35
6435;BME280;3250;42.694;23.278;2023-05-11T01:15:11;95022.91;;;10.06;80.65
6435;BME280;3250;42.694;23.278;2023-05-11T01:17:49;95026.38;;;10.06;80.92
6435;BME280;3250;42.694;23.278;2023-05-11T01:20:21;95035.25;;;10.05;81.22
6435;BME280;3250;42.694;23.278;2023-05-11T01:31:06;95009.78;;;9.73;81.80
6435;BME280;3250;42.694;23.278;2023-05-11T01:33:34;95006.75;;;9.76;82.47
6435;BME280;3250;42.694;23.278;2023-05-11T01:36:04;95020.31;;;9.99;81.48
6435;BME280;3250;42.694;23.278;2023-05-11T01:38:32;95026.56;;;9.98;81.66
6435;BME280;3250;42.694;23.278;2023-05-11T01:41:00;95022.13;;;9.92;81.35
6435;BME280;3250;42.694;23.278;2023-05-11T01:43:29;95018.50;;;9.93;81.26
6435;BME280;3250;42.694;23.278;2023-05-11T01:45:59;95009.16;;;9.77;81.22
6435;BME280;3250;42.694;23.278;2023-05-11T01:48:28;95027.59;;;9.91;81.30
6435;BME280;3250;42.694;23.278;2023-05-11T01:50:58;95009.16;;;9.71;81.34
6435;BME280;3250;42.694;23.278;2023-05-11T01:53:25;95019.31;;;9.94;80.68
6435;BME280;3250;42.694;23.278;2023-05-11T01:55:54;95013.63;;;9.70;80.85
6435;BME280;3250;42.694;23.278;2023-05-11T01:58:22;95000.66;;;9.56;81.27
6435;BME280;3250;42.694;23.278;2023-05-11T02:00:48;95018.06;;;9.70;81.23
6435;BME280;3250;42.694;23.278;2023-05-11T02:03:14;95013.63;;;9.64;81.43
6435;BME280;3250;42.694;23.278;2023-05-11T02:05:41;95026.16;;;9.81;80.57
6435;BME280;3250;42.694;23.278;2023-05-11T02:08:08;95027.59;;;9.84;79.96
6435;BME280;3250;42.694;23.278;2023-05-11T02:10:34;95016.84;;;9.72;80.03
6435;BME280;3250;42.694;23.278;2023-05-11T02:13:02;95013.44;;;9.85;80.12
6435;BME280;3250;42.694;23.278;2023-05-11T02:15:29;94980.06;;;9.66;79.11
6435;BME280;3250;42.694;23.278;2023-05-11T02:17:55;95007.97;;;9.93;78.79
6435;BME280;3250;42.694;23.278;2023-05-11T02:20:23;94998.66;;;9.77;78.37
6435;BME280;3250;42.694;23.278;2023-05-11T02:22:50;95019.50;;;9.86;78.54
6435;BME280;3250;42.694;23.278;2023-05-11T02:25:16;94986.53;;;9.57;78.62
6435;BME280;3250;42.694;23.278;2023-05-11T02:27:42;95020.50;;;9.71;78.63
6435;BME280;3250;42.694;23.278;2023-05-11T02:30:08;95023.94;;;9.72;78.92
6435;BME280;3250;42.694;23.278;2023-05-11T02:32:36;95017.06;;;9.71;78.46
6435;BME280;3250;42.694;23.278;2023-05-11T02:35:16;95019.69;;;9.71;78.71
6435;BME280;3250;42.694;23.278;2023-05-11T02:37:45;95007.16;;;9.66;78.50
6435;BME280;3250;42.694;23.278;2023-05-11T02:40:16;95014.22;;;9.72;78.64
6435;BME280;3250;42.694;23.278;2023-05-11T02:42:44;95002.69;;;9.80;78.31
6435;BME280;3250;42.694;23.278;2023-05-11T02:45:13;95022.50;;;9.69;78.37
6435;BME280;3250;42.694;23.278;2023-05-11T02:47:46;95021.09;;;9.73;78.93
6435;BME280;3250;42.694;23.278;2023-05-11T02:50:12;94991.16;;;9.55;78.39
6435;BME280;3250;42.694;23.278;2023-05-11T02:52:43;94977.03;;;9.42;78.29
6435;BME280;3250;42.694;23.278;2023-05-11T02:55:10;95026.38;;;9.67;79.12
6435;BME280;3250;42.694;23.278;2023-05-11T02:57:37;95009.78;;;9.66;79.31
6435;BME280;3250;42.694;23.278;2023-05-11T03:00:04;95012.00;;;9.63;79.12
6435;BME280;3250;42.694;23.278;2023-05-11T03:02:29;95001.88;;;9.53;79.19
6435;BME280;3250;42.694;23.278;2023-05-11T03:04:55;94988.16;;;9.51;78.24
6435;BME280;3250;42.694;23.278;2023-05-11T03:07:20;94991.78;;;9.50;78.88
6435;BME280;3250;42.694;23.278;2023-05-11T03:09:46;94972.34;;;9.44;78.48
6435;BME280;3250;42.694;23.278;2023-05-11T03:12:12;94995.00;;;9.39;79.03
6435;BME280;3250;42.694;23.278;2023-05-11T03:14:38;95000.88;;;9.41;79.22
6435;BME280;3250;42.694;23.278;2023-05-11T03:17:05;95012.97;;;9.35;79.76
6435;BME280;3250;42.694;23.278;2023-05-11T03:19:31;94970.91;;;9.22;79.80
6435;BME280;3250;42.694;23.278;2023-05-11T03:21:57;95012.56;;;9.52;79.55
6435;BME280;3250;42.694;23.278;2023-05-11T03:24:24;95014.81;;;9.41;79.89
6435;BME280;3250;42.694;23.278;2023-05-11T03:26:52;95026.72;;;9.37;79.81
6435;BME280;3250;42.694;23.278;2023-05-11T03:29:18;94963.00;;;9.02;79.68
6435;BME280;3250;42.694;23.278;2023-05-11T03:31:44;94987.06;;;9.26;79.76
6435;BME280;3250;42.694;23.278;2023-05-11T03:34:10;94991.31;;;9.20;79.76
6435;BME280;3250;42.694;23.278;2023-05-11T03:36:37;94996.16;;;9.17;80.35
6435;BME280;3250;42.694;23.278;2023-05-11T03:39:03;95032.78;;;9.44;80.10
6435;BME280;3250;42.694;23.278;2023-05-11T03:41:30;95024.69;;;9.39;79.35
6435;BME280;3250;42.694;23.278;2023-05-11T03:43:58;94972.28;;;9.05;79.91
6435;BME280;3250;42.694;23.278;2023-05-11T03:46:24;94991.94;;;9.29;79.78
6435;BME280;3250;42.694;23.278;2023-05-11T03:48:51;95018.63;;;9.45;79.70
6435;BME280;3250;42.694;23.278;2023-05-11T03:51:18;95023.69;;;9.54;79.29
6435;BME280;3250;42.694;23.278;2023-05-11T03:53:44;95021.44;;;9.37;79.93
6435;BME280;3250;42.694;23.278;2023-05-11T03:56:09;95037.25;;;9.51;79.76
6435;BME280;3250;42.694;23.278;2023-05-11T03:58:39;95029.94;;;9.39;79.55
6435;BME280;3250;42.694;23.278;2023-05-11T04:01:06;95035.22;;;9.46;80.47
6435;BME280;3250;42.694;23.278;2023-05-11T04:03:33;95044.53;;;9.49;80.12
6435;BME280;3250;42.694;23.278;2023-05-11T04:05:58;95053.59;;;9.33;80.69
6435;BME280;3250;42.694;23.278;2023-05-11T04:08:24;95018.00;;;9.24;80.74
6435;BME280;3250;42.694;23.278;2023-05-11T04:10:49;95045.91;;;9.38;80.84
6435;BME280;3250;42.694;23.278;2023-05-11T04:13:15;95020.63;;;9.24;81.18
6435;BME280;3250;42.694;23.278;2023-05-11T04:15:40;95048.97;;;9.48;80.62
6435;BME280;3250;42.694;23.278;2023-05-11T04:18:05;95031.09;;;9.17;80.98
6435;BME280;3250;42.694;23.278;2023-05-11T04:20:31;95047.69;;;9.24;81.60
6435;BME280;3250;42.694;23.278;2023-05-11T04:22:56;95049.47;;;9.17;82.42
6435;BME280;3250;42.694;23.278;2023-05-11T04:25:22;95028.88;;;9.07;82.35
6435;BME280;3250;42.694;23.278;2023-05-11T04:27:47;95061.47;;;9.33;82.38
6435;BME280;3250;42.694;23.278;2023-05-11T04:30:13;95065.13;;;9.38;81.98
6435;BME280;3250;42.694;23.278;2023-05-11T04:32:38;95057.63;;;9.35;81.82
6435;BME280;3250;42.694;23.278;2023-05-11T04:35:04;95056.84;;;9.41;81.91
6435;BME280;3250;42.694;23.278;2023-05-11T04:37:29;95068.09;;;9.29;82.36
6435;BME280;3250;42.694;23.278;2023-05-11T04:39:55;95044.63;;;9.07;83.45
6435;BME280;3250;42.694;23.278;2023-05-11T04:42:21;95046.38;;;8.94;83.34
6435;BME280;3250;42.694;23.278;2023-05-11T04:44:46;95059.78;;;9.19;84.05
6435;BME280;3250;42.694;23.278;2023-05-11T04:47:13;95065.09;;;9.32;83.11
6435;BME280;3250;42.694;23.278;2023-05-11T04:49:38;95054.53;;;9.19;83.22
6435;BME280;3250;42.694;23.278;2023-05-11T04:52:04;95070.28;;;9.19;83.72
6435;BME280;3250;42.694;23.278;2023-05-11T04:54:29;95057.50;;;8.96;83.95
6435;BME280;3250;42.694;23.278;2023-05-11T04:56:55;95063.19;;;9.06;84.89
6435;BME280;3250;42.694;23.278;2023-05-11T04:59:20;95068.25;;;9.07;84.48
6435;BME280;3250;42.694;23.278;2023-05-11T05:01:46;95032.84;;;8.90;84.82
6435;BME280;3250;42.694;23.278;2023-05-11T05:04:12;95073.72;;;9.19;84.41
6435;BME280;3250;42.694;23.278;2023-05-11T05:06:37;95060.75;;;9.04;84.43
6435;BME280;3250;42.694;23.278;2023-05-11T05:09:03;95060.50;;;8.99;84.96
6435;BME280;3250;42.694;23.278;2023-05-11T05:11:28;95086.66;;;9.14;85.01
6435;BME280;3250;42.694;23.278;2023-05-11T05:13:54;95059.94;;;9.04;84.92
6435;BME280;3250;42.694;23.278;2023-05-11T05:16:19;95067.28;;;9.15;85.02
6435;BME280;3250;42.694;23.278;2023-05-11T05:18:45;95055.25;;;8.93;85.18
6435;BME280;3250;42.694;23.278;2023-05-11T05:21:10;95041.47;;;8.84;85.28
6435;BME280;3250;42.694;23.278;2023-05-11T05:23:35;95083.66;;;9.24;85.36
6435;BME280;3250;42.694;23.278;2023-05-11T05:26:01;95088.28;;;9.15;85.12
6435;BME280;3250;42.694;23.278;2023-05-11T05:28:26;95076.06;;;9.01;85.76
6435;BME280;3250;42.694;23.278;2023-05-11T05:30:51;95083.19;;;9.07;85.54
6435;BME280;3250;42.694;23.278;2023-05-11T05:33:17;95072.44;;;9.02;85.46
6435;BME280;3250;42.694;23.278;2023-05-11T05:35:42;95102.78;;;9.11;85.98
6435;BME280;3250;42.694;23.278;2023-05-11T05:38:10;95099.31;;;9.04;86.22
6435;BME280;3250;42.694;23.278;2023-05-11T05:40:36;95091.28;;;9.12;86.62
6435;BME280;3250;42.694;23.278;2023-05-11T05:43:03;95087.69;;;9.20;86.29
6435;BME280;3250;42.694;23.278;2023-05-11T05:45:29;95098.00;;;9.21;85.94
6435;BME280;3250;42.694;23.278;2023-05-11T05:47:54;95069.59;;;8.90;86.53
6435;BME280;3250;42.694;23.278;2023-05-11T05:50:20;95100.31;;;8.96;86.99
6435;BME280;3250;42.694;23.278;2023-05-11T05:52:46;95098.91;;;9.00;86.99
6435;BME280;3250;42.694;23.278;2023-05-11T05:55:11;95109.28;;;9.15;87.31
6435;BME280;3250;42.694;23.278;2023-05-11T05:57:36;95103.44;;;9.26;85.99
6435;BME280;3250;42.694;23.278;2023-05-11T06:00:02;95108.53;;;9.34;86.01
6435;BME280;3250;42.694;23.278;2023-05-11T06:02:27;95094.38;;;9.29;85.25
6435;BME280;3250;42.694;23.278;2023-05-11T06:04:53;95109.81;;;9.52;85.02
6435;BME280;3250;42.694;23.278;2023-05-11T06:07:18;95110.22;;;9.49;85.18
6435;BME280;3250;42.694;23.278;2023-05-11T06:09:44;95106.97;;;9.53;84.45
6435;BME280;3250;42.694;23.278;2023-05-11T06:12:09;95063.63;;;9.16;83.90
6435;BME280;3250;42.694;23.278;2023-05-11T06:14:34;95127.00;;;9.48;84.46
6435;BME280;3250;42.694;23.278;2023-05-11T06:17:01;95101.63;;;9.27;84.47
6435;BME280;3250;42.694;23.278;2023-05-11T06:19:27;95131.13;;;9.22;84.68
6435;BME280;3250;42.694;23.278;2023-05-11T06:21:52;95092.63;;;8.95;84.46
6435;BME280;3250;42.694;23.278;2023-05-11T06:24:17;95132.69;;;9.10;85.11
6435;BME280;3250;42.694;23.278;2023-05-11T06:26:43;95124.22;;;9.15;85.44
6435;BME280;3250;42.694;23.278;2023-05-11T06:29:08;95123.78;;;9.04;85.11
6435;BME280;3250;42.694;23.278;2023-05-11T06:31:34;95131.03;;;9.02;85.49
6435;BME280;3250;42.694;23.278;2023-05-11T06:33:59;95131.69;;;9.11;85.86
6435;BME280;3250;42.694;23.278;2023-05-11T06:36:24;95130.13;;;9.23;85.83
6435;BME280;3250;42.694;23.278;2023-05-11T06:38:50;95129.50;;;9.21;84.94
6435;BME280;3250;42.694;23.278;2023-05-11T06:41:15;95143.44;;;9.22;85.30
6435;BME280;3250;42.694;23.278;2023-05-11T06:43:41;95131.50;;;9.19;85.23
6435;BME280;3250;42.694;23.278;2023-05-11T06:46:06;95134.66;;;9.01;85.43
6435;BME280;3250;42.694;23.278;2023-05-11T06:48:32;95142.50;;;8.95;86.29
6435;BME280;3250;42.694;23.278;2023-05-11T06:50:57;95123.47;;;8.86;86.43
6435;BME280;3250;42.694;23.278;2023-05-11T06:53:23;95087.22;;;8.68;86.68
6435;BME280;3250;42.694;23.278;2023-05-11T06:55:48;95092.69;;;8.74;86.53
6435;BME280;3250;42.694;23.278;2023-05-11T06:58:13;95130.28;;;9.15;87.50
6435;BME280;3250;42.694;23.278;2023-05-11T07:00:39;95100.06;;;8.91;85.37
6435;BME280;3250;42.694;23.278;2023-05-11T07:03:05;95129.50;;;9.21;85.85
6435;BME280;3250;42.694;23.278;2023-05-11T07:05:31;95121.81;;;9.20;85.27
6435;BME280;3250;42.694;23.278;2023-05-11T07:07:56;95134.06;;;9.47;85.32
6435;BME280;3250;42.694;23.278;2023-05-11T07:10:22;95133.25;;;9.46;84.02
6435;BME280;3250;42.694;23.278;2023-05-11T07:12:48;95135.41;;;9.91;84.62
6435;BME280;3250;42.694;23.278;2023-05-11T07:15:13;95128.78;;;10.28;81.91
6435;BME280;3250;42.694;23.278;2023-05-11T07:17:39;95148.41;;;10.58;80.37
6435;BME280;3250;42.694;23.278;2023-05-11T07:20:06;95132.22;;;10.35;80.29
6435;BME280;3250;42.694;23.278;2023-05-11T07:22:32;95104.88;;;10.16;79.84
6435;BME280;3250;42.694;23.278;2023-05-11T07:24:59;95144.78;;;10.19;80.52
6435;BME280;3250;42.694;23.278;2023-05-11T07:27:24;95143.38;;;10.37;80.33
6435;BME280;3250;42.694;23.278;2023-05-11T07:29:50;95128.38;;;10.44;78.92
6435;BME280;3250;42.694;23.278;2023-05-11T07:32:16;95159.56;;;10.60;79.09
6435;BME280;3250;42.694;23.278;2023-05-11T07:34:42;95133.44;;;10.52;79.09
6435;BME280;3250;42.694;23.278;2023-05-11T07:37:08;95164.81;;;10.80;77.84
6435;BME280;3250;42.694;23.278;2023-05-11T07:39:33;95119.50;;;10.45;77.77
6435;BME280;3250;42.694;23.278;2023-05-11T07:41:59;95119.22;;;10.73;78.12
6435;BME280;3250;42.694;23.278;2023-05-11T07:44:24;95146.34;;;11.00;76.88
6435;BME280;3250;42.694;23.278;2023-05-11T07:46:49;95146.16;;;10.88;75.90
6435;BME280;3250;42.694;23.278;2023-05-11T07:49:15;95173.72;;;10.79;76.31
6435;BME280;3250;42.694;23.278;2023-05-11T07:51:40;95136.69;;;10.41;76.98
6435;BME280;3250;42.694;23.278;2023-05-11T07:54:05;95117.66;;;10.32;77.30
6435;BME280;3250;42.694;23.278;2023-05-11T07:56:31;95162.59;;;10.64;76.95
6435;BME280;3250;42.694;23.278;2023-05-11T07:58:56;95155.50;;;10.57;75.59
6435;BME280;3250;42.694;23.278;2023-05-11T08:01:22;95167.06;;;10.50;75.60
6435;BME280;3250;42.694;23.278;2023-05-11T08:03:48;95141.75;;;10.42;76.23
6435;BME280;3250;42.694;23.278;2023-05-11T08:06:13;95133.44;;;10.58;75.68
6435;BME280;3250;42.694;23.278;2023-05-11T08:08:39;95158.50;;;11.01;75.14
6435;BME280;3250;42.694;23.278;2023-05-11T08:11:04;95160.09;;;11.08;73.69
6435;BME280;3250;42.694;23.278;2023-05-11T08:13:30;95158.94;;;10.98;74.73
6435;BME280;3250;42.694;23.278;2023-05-11T08:15:55;95146.56;;;10.98;73.70
6435;BME280;3250;42.694;23.278;2023-05-11T08:18:21;95108.66;;;10.92;73.62
6435;BME280;3250;42.694;23.278;2023-05-11T08:20:47;95104.41;;;10.91;72.52
6435;BME280;3250;42.694;23.278;2023-05-11T08:23:12;95119.03;;;10.87;72.92
6435;BME280;3250;42.694;23.278;2023-05-11T08:25:50;95133.00;;;10.88;72.79
6435;BME280;3250;42.694;23.278;2023-05-11T08:28:16;95152.63;;;10.98;72.81
6435;BME280;3250;42.694;23.278;2023-05-11T08:30:42;95133.75;;;11.08;72.88
6435;BME280;3250;42.694;23.278;2023-05-11T08:33:07;95104.59;;;11.03;71.67
6435;BME280;3250;42.694;23.278;2023-05-11T08:35:33;95126.41;;;11.30;72.44
6435;BME280;3250;42.694;23.278;2023-05-11T08:37:58;95113.50;;;11.15;71.91
6435;BME280;3250;42.694;23.278;2023-05-11T08:40:25;95114.72;;;11.13;71.64
6435;BME280;3250;42.694;23.278;2023-05-11T08:42:54;95131.28;;;11.20;71.48
6435;BME280;3250;42.694;23.278;2023-05-11T08:45:21;95138.38;;;11.19;71.24
6435;BME280;3250;42.694;23.278;2023-05-11T08:47:47;95123.00;;;11.10;71.92
6435;BME280;3250;42.694;23.278;2023-05-11T08:50:12;95160.50;;;11.12;71.78
6435;BME280;3250;42.694;23.278;2023-05-11T08:52:38;95171.63;;;11.20;71.74
6435;BME280;3250;42.694;23.278;2023-05-11T08:55:06;95152.00;;;11.10;71.97
6435;BME280;3250;42.694;23.278;2023-05-11T08:57:33;95150.16;;;11.17;71.87
6435;BME280;3250;42.694;23.278;2023-05-11T09:00:02;95157.22;;;11.29;72.27
6435;BME280;3250;42.694;23.278;2023-05-11T09:02:29;95111.78;;;11.34;71.87
6435;BME280;3250;42.694;23.278;2023-05-11T09:04:56;95148.34;;;11.68;71.75
6435;BME280;3250;42.694;23.278;2023-05-11T09:07:23;95164.88;;;11.44;70.78
6435;BME280;3250;42.694;23.278;2023-05-11T09:09:49;95129.81;;;11.37;71.54
6435;BME280;3250;42.694;23.278;2023-05-11T09:12:15;95137.56;;;11.32;71.53
6435;BME280;3250;42.694;23.278;2023-05-11T09:14:41;95100.13;;;11.04;71.84
6435;BME280;3250;42.694;23.278;2023-05-11T09:17:07;95121.81;;;11.06;72.27
6435;BME280;3250;42.694;23.278;2023-05-11T09:19:33;95131.66;;;11.37;73.05
6435;BME280;3250;42.694;23.278;2023-05-11T09:21:58;95099.63;;;11.33;72.42
6435;BME280;3250;42.694;23.278;2023-05-11T09:24:25;95077.53;;;11.27;72.79
6435;BME280;3250;42.694;23.278;2023-05-11T09:27:10;95119.44;;;11.49;72.82
6435;BME280;3250;42.694;23.278;2023-05-11T09:29:36;95155.84;;;11.71;72.87
6435;BME280;3250;42.694;23.278;2023-05-11T09:32:01;95153.28;;;11.58;74.32
6435;BME280;3250;42.694;23.278;2023-05-11T09:34:26;95102.25;;;11.33;73.55
6435;BME280;3250;42.694;23.278;2023-05-11T09:36:55;95143.50;;;11.65;75.63
6435;BME280;3250;42.694;23.278;2023-05-11T09:39:32;95145.94;;;11.60;74.16
6435;BME280;3250;42.694;23.278;2023-05-11T09:42:14;95158.66;;;11.77;74.41
6435;BME280;3250;42.694;23.278;2023-05-11T09:44:40;95124.28;;;11.58;73.41
6435;BME280;3250;42.694;23.278;2023-05-11T09:47:14;95111.81;;;11.72;74.24
6435;BME280;3250;42.694;23.278;2023-05-11T09:49:40;95122.09;;;11.87;75.80
6435;BME280;3250;42.694;23.278;2023-05-11T09:52:17;95125.44;;;12.07;73.71
6435;BME280;3250;42.694;23.278;2023-05-11T09:54:47;95128.94;;;12.01;72.77
6435;BME280;3250;42.694;23.278;2023-05-11T09:59:48;95117.28;;;11.77;73.68
6435;BME280;3250;42.694;23.278;2023-05-11T10:02:19;95091.38;;;11.67;73.85
6435;BME280;3250;42.694;23.278;2023-05-11T10:04:46;95090.19;;;11.57;73.69
6435;BME280;3250;42.694;23.278;2023-05-11T10:07:29;95129.88;;;11.68;74.42
6435;BME280;3250;42.694;23.278;2023-05-11T10:09:56;95084.16;;;11.43;74.67
6435;BME280;3250;42.694;23.278;2023-05-11T10:12:23;95117.38;;;11.51;74.94
6435;BME280;3250;42.694;23.278;2023-05-11T10:14:53;95086.84;;;11.37;73.97
6435;BME280;3250;42.694;23.278;2023-05-11T10:17:19;95047.00;;;11.13;74.81
6435;BME280;3250;42.694;23.278;2023-05-11T10:19:48;95094.69;;;11.50;74.86
6435;BME280;3250;42.694;23.278;2023-05-11T10:22:14;95076.81;;;11.58;74.85
6435;BME280;3250;42.694;23.278;2023-05-11T10:24:41;95065.97;;;11.73;73.06
6435;BME280;3250;42.694;23.278;2023-05-11T10:27:07;95087.78;;;11.93;73.67
6435;BME280;3250;42.694;23.278;2023-05-11T10:29:33;95067.69;;;11.92;73.71
6435;BME280;3250;42.694;23.278;2023-05-11T10:32:00;95069.69;;;11.97;73.08
6435;BME280;3250;42.694;23.278;2023-05-11T10:34:27;95072.53;;;11.95;72.49
6435;BME280;3250;42.694;23.278;2023-05-11T10:36:54;95113.97;;;11.88;73.06
6435;BME280;3250;42.694;23.278;2023-05-11T10:39:20;95077.38;;;11.98;73.44
6435;BME280;3250;42.694;23.278;2023-05-11T10:41:48;95093.63;;;12.27;73.45
6435;BME280;3250;42.694;23.278;2023-05-11T10:44:26;95085.22;;;12.36;71.39
6435;BME280;3250;42.694;23.278;2023-05-11T10:47:10;95110.22;;;12.59;70.98
6435;BME280;3250;42.694;23.278;2023-05-11T10:49:45;95100.56;;;12.46;70.90
6435;BME280;3250;42.694;23.278;2023-05-11T10:57:40;95101.44;;;12.40;70.79
6435;BME280;3250;42.694;23.278;2023-05-11T11:02:56;95092.81;;;12.26;71.71
6435;BME280;3250;42.694;23.278;2023-05-11T11:05:34;95100.69;;;12.33;70.88
6435;BME280;3250;42.694;23.278;2023-05-11T11:08:02;95093.41;;;12.53;70.91
6435;BME280;3250;42.694;23.278;2023-05-11T11:10:33;95090.97;;;12.52;71.12
6435;BME280;3250;42.694;23.278;2023-05-11T11:13:01;95054.78;;;12.34;70.70
6435;BME280;3250;42.694;23.278;2023-05-11T11:18:33;95068.09;;;12.64;70.57
6435;BME280;3250;42.694;23.278;2023-05-11T11:21:00;95092.63;;;12.71;70.90
6435;BME280;3250;42.694;23.278;2023-05-11T11:23:46;95087.78;;;12.68;69.51
6435;BME280;3250;42.694;23.278;2023-05-11T11:26:55;95091.25;;;12.87;69.79
6435;BME280;3250;42.694;23.278;2023-05-11T11:29:21;95060.66;;;12.97;69.92
6435;BME280;3250;42.694;23.278;2023-05-11T11:31:46;95028.44;;;12.70;68.56
6435;BME280;3250;42.694;23.278;2023-05-11T11:42:14;95081.03;;;12.90;69.65
6435;BME280;3250;42.694;23.278;2023-05-11T11:44:41;95096.75;;;12.85;68.95
6435;BME280;3250;42.694;23.278;2023-05-11T11:47:11;95083.03;;;12.76;69.17
6435;BME280;3250;42.694;23.278;2023-05-11T11:49:38;95079.50;;;12.82;70.75
6435;BME280;3250;42.694;23.278;2023-05-11T11:52:04;95071.66;;;12.94;69.70
6435;BME280;3250;42.694;23.278;2023-05-11T11:54:37;95077.84;;;13.25;69.86
6435;BME280;3250;42.694;23.278;2023-05-11T11:57:03;95059.50;;;13.30;68.01
6435;BME280;3250;42.694;23.278;2023-05-11T11:59:29;95059.34;;;13.25;67.52
6435;BME280;3250;42.694;23.278;2023-05-11T12:01:55;95065.38;;;13.32;67.31
6435;BME280;3250;42.694;23.278;2023-05-11T12:04:50;95071.97;;;13.04;67.93
6435;BME280;3250;42.694;23.278;2023-05-11T12:07:18;95041.34;;;12.78;69.02
6435;BME280;3250;42.694;23.278;2023-05-11T12:09:44;95078.56;;;12.95;69.26
6435;BME280;3250;42.694;23.278;2023-05-11T12:12:10;95069.66;;;12.90;69.10
6435;BME280;3250;42.694;23.278;2023-05-11T12:14:37;95045.75;;;12.84;69.04
6435;BME280;3250;42.694;23.278;2023-05-11T12:17:05;95066.81;;;12.91;70.01
6435;BME280;3250;42.694;23.278;2023-05-11T12:19:32;95067.47;;;12.87;69.81
6435;BME280;3250;42.694;23.278;2023-05-11T12:21:58;95017.41;;;12.55;70.38
6435;BME280;3250;42.694;23.278;2023-05-11T12:24:23;95056.53;;;12.83;70.87
6435;BME280;3250;42.694;23.278;2023-05-11T12:26:49;95057.78;;;12.80;70.45
6435;BME280;3250;42.694;23.278;2023-05-11T12:29:14;95050.38;;;12.71;70.33
6435;BME280;3250;42.694;23.278;2023-05-11T12:31:46;95041.47;;;12.65;70.78
6435;BME280;3250;42.694;23.278;2023-05-11T12:34:15;95021.19;;;12.41;71.04
6435;BME280;3250;42.694;23.278;2023-05-11T12:36:42;95030.59;;;12.55;70.98
6435;BME280;3250;42.694;23.278;2023-05-11T12:39:15;95022.13;;;12.53;71.24
6435;BME280;3250;42.694;23.278;2023-05-11T12:41:42;95040.88;;;12.63;71.97
6435;BME280;3250;42.694;23.278;2023-05-11T12:44:07;95016.66;;;12.48;71.76
6435;BME280;3250;42.694;23.278;2023-05-11T12:46:34;94998.09;;;12.55;71.29
6435;BME280;3250;42.694;23.278;2023-05-11T12:49:00;95035.47;;;12.76;70.83
6435;BME280;3250;42.694;23.278;2023-05-11T12:51:42;95012.34;;;12.72;70.88
6435;BME280;3250;42.694;23.278;2023-05-11T12:54:08;95043.91;;;12.67;69.86
6435;BME280;3250;42.694;23.278;2023-05-11T12:56:47;95010.41;;;12.24;71.38
6435;BME280;3250;42.694;23.278;2023-05-11T12:59:36;95005.59;;;12.15;72.14
6435;BME280;3250;42.694;23.278;2023-05-11T13:02:12;95018.81;;;12.15;71.21
6435;BME280;3250;42.694;23.278;2023-05-11T13:04:39;95021.03;;;11.93;73.08
6435;BME280;3250;42.694;23.278;2023-05-11T13:07:05;95018.22;;;11.88;73.60
6435;BME280;3250;42.694;23.278;2023-05-11T13:09:31;94988.44;;;11.81;73.75
6435;BME280;3250;42.694;23.278;2023-05-11T13:12:13;94994.59;;;11.99;72.74
6435;BME280;3250;42.694;23.278;2023-05-11T13:14:40;95004.69;;;12.27;72.26
6435;BME280;3250;42.694;23.278;2023-05-11T13:17:05;94978.34;;;12.21;72.17
6435;BME280;3250;42.694;23.278;2023-05-11T13:19:31;95005.22;;;12.36;71.67
6435;BME280;3250;42.694;23.278;2023-05-11T13:21:58;95012.63;;;12.27;71.66
6435;BME280;3250;42.694;23.278;2023-05-11T13:24:24;95008.19;;;12.21;71.96
6435;BME280;3250;42.694;23.278;2023-05-11T13:26:50;94990.16;;;12.18;71.64
6435;BME280;3250;42.694;23.278;2023-05-11T13:29:16;95002.41;;;12.31;71.95
6435;BME280;3250;42.694;23.278;2023-05-11T13:31:49;94958.91;;;12.15;71.20
6435;BME280;3250;42.694;23.278;2023-05-11T13:34:16;95003.09;;;12.44;71.05
6435;BME280;3250;42.694;23.278;2023-05-11T13:36:41;94958.84;;;12.22;71.02
6435;BME280;3250;42.694;23.278;2023-05-11T13:39:07;94986.66;;;12.42;71.23
6435;BME280;3250;42.694;23.278;2023-05-11T13:41:33;95006.69;;;12.50;71.03
6435;BME280;3250;42.694;23.278;2023-05-11T13:43:58;94987.81;;;12.28;72.28
6435;BME280;3250;42.694;23.278;2023-05-11T13:46:24;94994.22;;;12.39;71.97